createdAt,value
2018-12-31T00:00:09.912Z,8.50
2018-12-31T00:02:40.101Z,8.50
2018-12-31T00:05:09.726Z,8.50
2018-12-31T00:07:39.139Z,8.60
2018-12-31T00:10:09.356Z,8.40
2018-12-31T00:12:38.743Z,8.40
2018-12-31T00:15:09.248Z,8.40
2018-12-31T00:17:38.619Z,8.40
2018-12-31T00:20:08.259Z,8.40
2018-12-31T00:22:38.054Z,8.40
2018-12-31T00:25:07.687Z,8.40
2018-12-31T00:27:37.067Z,8.40
2018-12-31T00:30:07.653Z,8.40
2018-12-31T00:32:37.025Z,8.40
2018-12-31T00:35:06.409Z,8.40
2018-12-31T00:37:36.058Z,8.40
2018-12-31T00:40:06.079Z,8.40
2018-12-31T00:42:35.445Z,8.40
2018-12-31T00:45:05.788Z,8.40
2018-12-31T00:47:35.156Z,8.40
2018-12-31T00:50:05.186Z,8.40
2018-12-31T00:52:34.587Z,8.40
2018-12-31T00:55:03.966Z,8.40
2018-12-31T00:57:33.372Z,8.50
2018-12-31T01:00:02.847Z,8.50
2018-12-31T01:02:32.226Z,8.50
2018-12-31T01:05:01.606Z,8.50
2018-12-31T01:07:31.598Z,8.50
2018-12-31T01:10:01.049Z,8.50
2018-12-31T01:12:30.417Z,8.50
2018-12-31T01:14:59.824Z,8.50
2018-12-31T01:17:29.200Z,8.50
2018-12-31T01:19:58.570Z,8.60
2018-12-31T01:22:27.981Z,8.60
2018-12-31T01:24:57.355Z,8.60
2018-12-31T01:27:26.742Z,8.60
2018-12-31T01:29:56.141Z,8.60
2018-12-31T01:32:25.515Z,8.60
2018-12-31T01:34:54.889Z,8.60
2018-12-31T01:37:24.289Z,8.60
2018-12-31T01:39:53.662Z,8.60
2018-12-31T01:42:23.047Z,8.60
2018-12-31T01:44:52.448Z,8.60
2018-12-31T01:47:21.826Z,8.50
2018-12-31T01:49:51.205Z,8.50
2018-12-31T01:52:20.909Z,8.50
2018-12-31T01:54:50.280Z,8.50
2018-12-31T01:57:19.662Z,8.50
2018-12-31T01:59:49.069Z,8.50
2018-12-31T02:02:18.449Z,8.50
2018-12-31T02:04:47.867Z,8.60
2018-12-31T02:07:17.263Z,8.60
2018-12-31T02:09:46.957Z,8.60
2018-12-31T02:12:16.347Z,8.60
2018-12-31T02:14:46.196Z,8.60
2018-12-31T02:17:15.572Z,8.60
2018-12-31T02:19:44.954Z,8.60
2018-12-31T02:22:14.460Z,8.70
2018-12-31T02:24:43.838Z,8.70
2018-12-31T02:27:13.215Z,8.70
2018-12-31T02:29:42.631Z,8.70
2018-12-31T02:32:12.010Z,8.70
2018-12-31T02:34:41.414Z,8.70
2018-12-31T02:37:11.336Z,8.70
2018-12-31T02:39:41.020Z,8.80
2018-12-31T02:42:10.394Z,8.80
2018-12-31T02:44:39.791Z,8.80
2018-12-31T02:47:09.170Z,8.80
2018-12-31T02:49:38.543Z,8.80
2018-12-31T02:52:07.940Z,8.80
2018-12-31T02:54:37.321Z,8.90
2018-12-31T02:57:06.797Z,8.90
2018-12-31T02:59:36.653Z,8.90
2018-12-31T03:02:06.028Z,8.90
2018-12-31T03:04:35.403Z,8.90
2018-12-31T03:07:05.126Z,8.90
2018-12-31T03:09:34.754Z,8.90
2018-12-31T03:12:04.772Z,8.90
2018-12-31T03:14:34.180Z,8.90
2018-12-31T03:17:03.572Z,8.90
2018-12-31T03:19:33.298Z,8.90
2018-12-31T03:22:02.992Z,8.90
2018-12-31T03:24:32.366Z,8.90
2018-12-31T03:27:01.744Z,9.00
2018-12-31T03:29:31.136Z,8.90
2018-12-31T03:32:00.518Z,8.80
2018-12-31T03:34:29.898Z,8.80
2018-12-31T03:36:59.287Z,8.80
2018-12-31T03:39:28.667Z,8.80
2018-12-31T03:41:58.040Z,8.90
2018-12-31T03:44:27.776Z,8.90
2018-12-31T03:46:57.448Z,8.90
2018-12-31T03:49:26.818Z,8.90
2018-12-31T03:51:56.230Z,8.90
2018-12-31T03:54:25.617Z,8.90
2018-12-31T03:56:55.258Z,8.80
2018-12-31T03:59:24.648Z,8.80
2018-12-31T04:01:54.045Z,8.80
2018-12-31T04:04:23.414Z,8.80
2018-12-31T04:06:52.819Z,8.80
2018-12-31T04:09:22.203Z,8.90
2018-12-31T04:11:51.577Z,8.90
2018-12-31T04:14:21.222Z,8.90
2018-12-31T04:16:50.594Z,8.90
2018-12-31T04:19:19.967Z,8.90
2018-12-31T04:21:49.711Z,8.90
2018-12-31T04:24:19.081Z,8.90
2018-12-31T04:26:48.459Z,8.90
2018-12-31T04:29:18.156Z,8.90
2018-12-31T04:31:47.532Z,8.90
2018-12-31T04:34:16.905Z,8.90
2018-12-31T04:36:46.313Z,8.90
2018-12-31T04:39:15.687Z,8.90
2018-12-31T04:41:45.068Z,8.90
2018-12-31T04:44:14.447Z,8.90
2018-12-31T04:46:43.830Z,8.90
2018-12-31T04:49:13.203Z,8.90
2018-12-31T04:51:42.607Z,8.90
2018-12-31T04:54:11.984Z,8.90
2018-12-31T04:56:41.352Z,8.90
2018-12-31T04:59:10.782Z,8.90
2018-12-31T05:01:40.120Z,8.90
2018-12-31T05:04:09.499Z,8.90
2018-12-31T05:06:39.157Z,8.90
2018-12-31T05:09:08.533Z,8.90
2018-12-31T05:11:37.907Z,8.90
2018-12-31T05:14:07.583Z,8.90
2018-12-31T05:16:36.991Z,8.80
2018-12-31T05:19:06.368Z,8.80
2018-12-31T05:21:35.751Z,8.80
2018-12-31T05:24:05.129Z,8.80
2018-12-31T05:26:34.502Z,8.80
2018-12-31T05:29:04.191Z,8.80
2018-12-31T05:31:33.567Z,8.70
2018-12-31T05:34:02.942Z,8.70
2018-12-31T05:36:32.552Z,8.70
2018-12-31T05:39:01.924Z,8.70
2018-12-31T05:41:31.299Z,8.70
2018-12-31T05:44:00.701Z,8.70
2018-12-31T05:46:30.065Z,8.70
2018-12-31T05:48:59.437Z,8.70
2018-12-31T05:51:28.838Z,8.70
2018-12-31T05:53:58.218Z,8.70
2018-12-31T05:56:27.591Z,8.70
2018-12-31T05:58:57.010Z,8.70
2018-12-31T06:01:26.385Z,8.80
2018-12-31T06:03:55.757Z,8.80
2018-12-31T06:06:25.139Z,8.80
2018-12-31T06:08:54.519Z,8.80
2018-12-31T06:11:23.901Z,8.90
2018-12-31T06:13:53.289Z,8.90
2018-12-31T06:16:22.661Z,8.90
2018-12-31T06:18:52.480Z,8.90
2018-12-31T06:21:22.213Z,8.90
2018-12-31T06:23:51.596Z,8.90
2018-12-31T06:26:21.280Z,8.90
2018-12-31T06:28:50.682Z,9.00
2018-12-31T06:31:20.062Z,9.00
2018-12-31T06:33:49.453Z,9.00
2018-12-31T06:36:18.854Z,9.00
2018-12-31T06:38:48.218Z,9.10
2018-12-31T06:41:17.601Z,9.10
2018-12-31T06:43:47.340Z,9.10
2018-12-31T06:46:16.732Z,9.10
2018-12-31T06:48:46.421Z,9.10
2018-12-31T06:51:15.810Z,9.10
2018-12-31T06:53:45.193Z,9.10
2018-12-31T06:56:14.574Z,9.10
2018-12-31T06:58:44.002Z,9.10
2018-12-31T07:01:13.421Z,9.20
2018-12-31T07:03:42.789Z,9.20
2018-12-31T07:06:12.550Z,9.20
2018-12-31T07:08:42.303Z,9.20
2018-12-31T07:11:11.682Z,9.30
2018-12-31T07:13:41.081Z,9.30
2018-12-31T07:16:10.468Z,9.30
2018-12-31T07:18:39.851Z,9.30
2018-12-31T07:21:09.515Z,9.30
2018-12-31T07:23:38.913Z,9.40
2018-12-31T07:26:09.958Z,9.40
2018-12-31T07:28:39.566Z,9.40
2018-12-31T07:31:08.951Z,9.50
2018-12-31T07:33:38.334Z,9.50
2018-12-31T07:36:07.742Z,9.50
2018-12-31T07:38:37.133Z,9.50
2018-12-31T07:41:06.515Z,9.50
2018-12-31T07:43:35.923Z,9.50
2018-12-31T07:46:05.334Z,9.50
2018-12-31T07:48:34.724Z,9.50
2018-12-31T07:51:04.566Z,9.50
2018-12-31T07:53:33.960Z,9.60
2018-12-31T07:56:03.413Z,9.60
2018-12-31T07:58:33.110Z,9.60
2018-12-31T08:01:02.495Z,9.70
2018-12-31T08:03:31.865Z,9.70
2018-12-31T08:06:01.258Z,9.70
2018-12-31T08:08:30.637Z,9.70
2018-12-31T08:11:00.019Z,9.70
2018-12-31T08:13:29.442Z,9.70
2018-12-31T08:15:58.827Z,9.80
2018-12-31T08:18:28.206Z,9.80
2018-12-31T08:20:57.605Z,9.80
2018-12-31T08:23:27.446Z,9.80
2018-12-31T08:25:56.859Z,9.90
2018-12-31T08:28:26.661Z,9.90
2018-12-31T08:30:56.068Z,9.90
2018-12-31T08:33:25.452Z,9.90
2018-12-31T08:35:55.300Z,9.90
2018-12-31T08:38:24.703Z,9.90
2018-12-31T08:40:54.223Z,10.00
2018-12-31T08:43:23.571Z,10.00
2018-12-31T08:45:53.004Z,10.00
2018-12-31T08:48:22.430Z,10.00
2018-12-31T08:50:52.098Z,10.00
2018-12-31T08:53:21.469Z,10.00
2018-12-31T08:55:50.862Z,10.10
2018-12-31T08:58:20.320Z,10.10
2018-12-31T09:00:49.947Z,10.10
2018-12-31T09:03:19.329Z,10.10
2018-12-31T09:05:48.733Z,10.20
2018-12-31T09:08:18.116Z,10.20
2018-12-31T09:10:47.497Z,10.30
2018-12-31T09:13:16.888Z,10.30
2018-12-31T09:15:46.332Z,10.40
2018-12-31T09:18:15.955Z,10.40
2018-12-31T09:20:46.223Z,10.50
2018-12-31T09:23:15.605Z,10.60
2018-12-31T09:25:45.906Z,10.60
2018-12-31T09:28:15.321Z,10.60
2018-12-31T09:30:44.711Z,10.60
2018-12-31T09:33:14.103Z,10.70
2018-12-31T09:35:43.524Z,10.70
2018-12-31T09:38:12.909Z,10.70
2018-12-31T09:40:42.283Z,10.70
2018-12-31T09:43:11.948Z,10.80
2018-12-31T09:45:41.338Z,10.80
2018-12-31T09:48:10.753Z,10.80
2018-12-31T09:50:40.144Z,10.80
2018-12-31T09:53:09.530Z,10.80
2018-12-31T09:55:38.941Z,10.80
2018-12-31T09:58:08.332Z,10.80
2018-12-31T10:00:37.713Z,10.80
2018-12-31T10:03:07.097Z,10.80
2018-12-31T10:05:36.874Z,10.80
2018-12-31T10:08:06.253Z,10.90
2018-12-31T10:10:35.640Z,10.90
2018-12-31T10:13:05.105Z,10.90
2018-12-31T10:15:34.481Z,11.00
2018-12-31T10:18:03.867Z,11.10
2018-12-31T10:20:33.256Z,11.10
2018-12-31T10:23:02.661Z,11.10
2018-12-31T10:25:32.116Z,11.20
2018-12-31T10:28:02.492Z,11.20
2018-12-31T10:30:31.791Z,11.20
2018-12-31T10:33:01.169Z,11.20
2018-12-31T10:35:30.562Z,11.20
2018-12-31T10:38:00.177Z,11.20
2018-12-31T10:40:29.560Z,11.30
2018-12-31T10:42:58.974Z,11.30
2018-12-31T10:45:28.363Z,11.30
2018-12-31T10:47:57.745Z,11.30
2018-12-31T10:50:27.385Z,11.40
2018-12-31T10:52:56.837Z,11.40
2018-12-31T10:55:26.213Z,11.50
2018-12-31T10:57:55.602Z,11.50
2018-12-31T11:00:24.999Z,11.50
2018-12-31T11:02:54.377Z,11.50
2018-12-31T11:05:23.767Z,11.50
2018-12-31T11:07:53.160Z,11.50
2018-12-31T11:10:22.543Z,11.40
2018-12-31T11:12:51.959Z,11.40
2018-12-31T11:15:21.363Z,11.40
2018-12-31T11:17:50.735Z,11.40
2018-12-31T11:20:20.153Z,11.40
2018-12-31T11:22:49.540Z,11.40
2018-12-31T11:25:18.915Z,11.40
2018-12-31T11:27:48.318Z,11.40
2018-12-31T11:30:18.385Z,11.40
2018-12-31T11:32:47.758Z,11.40
2018-12-31T11:35:17.462Z,11.40
2018-12-31T11:37:46.886Z,11.40
2018-12-31T11:40:16.224Z,11.40
2018-12-31T11:42:45.666Z,11.40
2018-12-31T11:45:14.992Z,11.40
2018-12-31T11:47:44.371Z,11.40
2018-12-31T11:50:13.782Z,11.50
2018-12-31T11:52:43.255Z,11.50
2018-12-31T11:55:12.638Z,11.50
2018-12-31T11:57:42.581Z,11.50
2018-12-31T12:00:11.958Z,11.60
2018-12-31T12:02:41.343Z,11.60
2018-12-31T12:05:10.739Z,11.60
2018-12-31T12:07:40.170Z,11.70
2018-12-31T12:10:09.650Z,11.70
2018-12-31T12:12:39.046Z,9.70
2018-12-31T12:15:09.060Z,11.70
2018-12-31T12:17:38.432Z,11.70
2018-12-31T12:20:09.143Z,11.70
2018-12-31T12:22:38.518Z,11.70
2018-12-31T12:25:08.223Z,11.70
2018-12-31T12:27:37.616Z,11.70
2018-12-31T12:30:09.251Z,11.70
2018-12-31T12:32:40.078Z,11.70
2018-12-31T12:35:09.446Z,11.70
2018-12-31T12:37:38.828Z,11.70
2018-12-31T12:40:09.339Z,11.70
2018-12-31T12:42:38.810Z,11.80
2018-12-31T12:45:09.515Z,11.80
2018-12-31T12:47:38.866Z,11.90
2018-12-31T12:50:09.091Z,11.90
2018-12-31T12:52:38.476Z,11.90
2018-12-31T12:55:08.099Z,11.90
2018-12-31T12:57:37.513Z,12.00
2018-12-31T13:00:07.520Z,12.00
2018-12-31T13:02:36.893Z,12.00
2018-12-31T13:05:06.548Z,12.10
2018-12-31T13:07:36.306Z,12.10
2018-12-31T13:10:07.036Z,12.10
2018-12-31T13:12:36.813Z,12.10
2018-12-31T13:15:07.054Z,12.20
2018-12-31T13:17:36.463Z,12.20
2018-12-31T13:20:06.312Z,12.20
2018-12-31T13:22:35.683Z,12.20
2018-12-31T13:25:05.461Z,12.20
2018-12-31T13:27:35.109Z,12.20
2018-12-31T13:30:05.523Z,12.20
2018-12-31T13:32:34.918Z,12.20
2018-12-31T13:35:04.609Z,12.20
2018-12-31T13:37:33.982Z,12.20
2018-12-31T13:40:03.358Z,12.20
2018-12-31T13:42:32.755Z,12.20
2018-12-31T13:45:02.135Z,12.20
2018-12-31T13:47:31.532Z,12.20
2018-12-31T13:50:00.944Z,12.20
2018-12-31T13:52:30.408Z,12.20
2018-12-31T13:55:00.166Z,12.30
2018-12-31T13:57:29.568Z,12.30
2018-12-31T13:59:58.941Z,12.30
2018-12-31T14:02:28.323Z,12.30
2018-12-31T14:04:57.806Z,12.30
2018-12-31T14:07:28.359Z,12.30
2018-12-31T14:09:57.730Z,12.40
2018-12-31T14:12:27.333Z,12.40
2018-12-31T14:14:56.717Z,12.40
2018-12-31T14:17:26.101Z,12.40
2018-12-31T14:19:55.515Z,12.40
2018-12-31T14:22:24.897Z,12.40
2018-12-31T14:24:54.350Z,12.30
2018-12-31T14:27:24.016Z,12.30
2018-12-31T14:29:53.388Z,12.30
2018-12-31T14:32:22.771Z,12.30
2018-12-31T14:34:52.346Z,12.30
2018-12-31T14:37:23.001Z,12.30
2018-12-31T14:39:52.377Z,12.30
2018-12-31T14:42:22.147Z,12.30
2018-12-31T14:44:51.526Z,12.40
2018-12-31T14:47:20.913Z,12.30
2018-12-31T14:49:50.298Z,12.40
2018-12-31T14:52:19.671Z,12.40
2018-12-31T14:54:49.338Z,12.40
2018-12-31T14:57:19.050Z,12.40
2018-12-31T14:59:48.428Z,12.40
2018-12-31T15:02:17.817Z,12.40
2018-12-31T15:04:47.211Z,12.40
2018-12-31T15:07:16.599Z,12.40
2018-12-31T15:09:45.972Z,12.40
2018-12-31T15:12:15.368Z,12.40
2018-12-31T15:14:44.740Z,12.40
2018-12-31T15:17:14.434Z,12.30
2018-12-31T15:19:44.119Z,12.30
2018-12-31T15:22:13.498Z,12.30
2018-12-31T15:24:43.152Z,12.30
2018-12-31T15:27:12.555Z,12.30
2018-12-31T15:29:41.929Z,12.30
2018-12-31T15:32:11.317Z,12.20
2018-12-31T15:34:40.714Z,12.20
2018-12-31T15:37:10.087Z,12.20
2018-12-31T15:39:40.520Z,12.10
2018-12-31T15:42:10.454Z,12.10
2018-12-31T15:44:39.834Z,12.10
2018-12-31T15:47:09.342Z,12.00
2018-12-31T15:49:38.714Z,12.00
2018-12-31T15:52:08.110Z,12.00
2018-12-31T15:54:37.765Z,12.00
2018-12-31T15:57:07.187Z,11.90
2018-12-31T15:59:36.567Z,11.90
2018-12-31T16:02:05.956Z,11.90
2018-12-31T16:04:35.657Z,11.90
2018-12-31T16:07:05.417Z,11.90
2018-12-31T16:09:34.805Z,11.90
2018-12-31T16:12:04.210Z,11.90
2018-12-31T16:14:33.586Z,11.80
2018-12-31T16:17:02.978Z,11.80
2018-12-31T16:19:32.679Z,11.80
2018-12-31T16:22:02.070Z,11.80
2018-12-31T16:24:31.442Z,11.80
2018-12-31T16:27:01.139Z,11.80
2018-12-31T16:29:30.546Z,11.80
2018-12-31T16:32:00.319Z,11.80
2018-12-31T16:34:29.713Z,11.80
2018-12-31T16:36:59.125Z,11.80
2018-12-31T16:39:28.485Z,11.80
2018-12-31T16:41:58.784Z,11.80
2018-12-31T16:44:28.187Z,11.80
2018-12-31T16:46:57.563Z,11.80
2018-12-31T16:49:27.008Z,11.80
2018-12-31T16:52:02.632Z,11.80
2018-12-31T16:54:27.581Z,11.80
2018-12-31T16:56:56.975Z,11.80
2018-12-31T16:59:26.364Z,11.80
2018-12-31T17:01:55.747Z,11.80
2018-12-31T17:04:25.142Z,11.90
2018-12-31T17:06:54.535Z,11.90
2018-12-31T17:09:23.918Z,11.90
2018-12-31T17:11:53.379Z,11.90
2018-12-31T17:14:22.764Z,11.90
2018-12-31T17:16:52.157Z,11.90
2018-12-31T17:19:21.560Z,11.90
2018-12-31T17:21:50.946Z,11.90
2018-12-31T17:24:20.325Z,11.90
2018-12-31T17:26:49.729Z,11.90
2018-12-31T17:29:19.188Z,11.90
2018-12-31T17:31:48.584Z,11.90
2018-12-31T17:34:18.000Z,11.90
2018-12-31T17:36:47.390Z,11.90
2018-12-31T17:39:16.802Z,11.90
2018-12-31T17:41:46.175Z,11.90
2018-12-31T17:44:16.992Z,11.90
2018-12-31T17:46:46.375Z,11.80
2018-12-31T17:49:15.767Z,11.80
2018-12-31T17:51:45.153Z,11.80
2018-12-31T17:54:14.810Z,11.80
2018-12-31T17:56:44.774Z,11.80
2018-12-31T17:59:14.178Z,11.80
2018-12-31T18:01:43.566Z,11.80
2018-12-31T18:04:12.973Z,11.80
2018-12-31T18:06:43.471Z,11.80
2018-12-31T18:09:13.348Z,11.80
2018-12-31T18:11:42.754Z,11.80
2018-12-31T18:14:12.138Z,11.80
2018-12-31T18:16:41.525Z,11.80
2018-12-31T18:19:11.039Z,11.80
2018-12-31T18:21:40.657Z,11.80
2018-12-31T18:24:10.028Z,11.80
2018-12-31T18:26:39.424Z,11.80
2018-12-31T18:29:08.808Z,11.80
2018-12-31T18:31:38.208Z,11.80
2018-12-31T18:34:07.786Z,11.80
2018-12-31T18:36:37.176Z,11.80
2018-12-31T18:39:07.701Z,11.80
2018-12-31T18:41:37.871Z,11.80
2018-12-31T18:44:07.250Z,11.80
2018-12-31T18:46:37.339Z,11.80
2018-12-31T18:49:06.997Z,11.80
2018-12-31T18:51:36.385Z,11.80
2018-12-31T18:54:05.781Z,11.80
2018-12-31T18:56:35.187Z,11.90
2018-12-31T18:59:04.573Z,11.90
2018-12-31T19:01:33.969Z,11.90
2018-12-31T19:04:03.402Z,11.90
2018-12-31T19:06:32.783Z,11.90
2018-12-31T19:09:02.173Z,11.90
2018-12-31T19:11:31.574Z,11.90
2018-12-31T19:14:00.973Z,11.90
2018-12-31T19:16:30.707Z,12.00
2018-12-31T19:19:00.558Z,12.00
2018-12-31T19:21:30.268Z,12.00
2018-12-31T19:23:59.651Z,12.00
2018-12-31T19:26:29.087Z,12.00
2018-12-31T19:28:58.471Z,12.00
2018-12-31T19:31:27.853Z,12.00
2018-12-31T19:33:57.276Z,12.00
2018-12-31T19:36:26.670Z,12.00
2018-12-31T19:38:56.051Z,12.00
2018-12-31T19:41:25.462Z,12.00
2018-12-31T19:43:54.844Z,12.00
2018-12-31T19:46:24.235Z,11.90
2018-12-31T19:48:54.355Z,12.00
2018-12-31T19:51:23.762Z,12.00
2018-12-31T19:53:53.140Z,12.00
2018-12-31T19:56:22.547Z,12.00
2018-12-31T19:58:51.935Z,12.00
2018-12-31T20:01:21.331Z,12.00
2018-12-31T20:03:51.008Z,12.00
2018-12-31T20:06:20.395Z,12.00
2018-12-31T20:08:49.792Z,12.00
2018-12-31T20:11:19.699Z,12.00
2018-12-31T20:13:49.085Z,12.00
2018-12-31T20:16:18.465Z,12.00
2018-12-31T20:18:47.867Z,12.00
2018-12-31T20:21:17.268Z,12.00
2018-12-31T20:23:46.653Z,12.00
2018-12-31T20:26:16.384Z,12.00
2018-12-31T20:28:45.833Z,12.00
2018-12-31T20:31:15.219Z,12.00
2018-12-31T20:33:45.147Z,12.00
2018-12-31T20:36:14.557Z,12.10
2018-12-31T20:38:44.218Z,12.10
2018-12-31T20:41:13.622Z,12.10
2018-12-31T20:43:43.003Z,12.10
2018-12-31T20:46:12.475Z,12.10
2018-12-31T20:48:41.874Z,12.10
2018-12-31T20:51:11.950Z,12.20
2018-12-31T20:53:41.335Z,12.20
2018-12-31T20:56:11.214Z,12.20
2018-12-31T20:58:40.590Z,12.20
2018-12-31T21:01:09.993Z,12.30
2018-12-31T21:03:39.394Z,12.30
2018-12-31T21:06:08.785Z,12.30
2018-12-31T21:08:38.160Z,12.30
2018-12-31T21:11:07.566Z,12.30
2018-12-31T21:13:36.947Z,12.30
2018-12-31T21:16:06.330Z,12.30
2018-12-31T21:18:37.319Z,12.30
2018-12-31T21:21:06.892Z,12.30
2018-12-31T21:23:36.286Z,12.30
2018-12-31T21:26:05.735Z,12.30
2018-12-31T21:28:35.111Z,12.30
2018-12-31T21:31:04.494Z,12.30
2018-12-31T21:33:33.879Z,12.30
2018-12-31T21:36:03.562Z,12.30
2018-12-31T21:38:32.946Z,12.30
2018-12-31T21:41:02.613Z,12.30
2018-12-31T21:43:32.273Z,12.30
2018-12-31T21:46:01.666Z,12.30
2018-12-31T21:48:31.048Z,12.30
2018-12-31T21:51:00.516Z,12.30
2018-12-31T21:53:31.053Z,12.30
2018-12-31T21:56:00.492Z,12.30
2018-12-31T21:58:29.845Z,12.30
2018-12-31T22:00:59.245Z,12.30
2018-12-31T22:03:28.975Z,12.30
2018-12-31T22:05:58.400Z,12.40
2018-12-31T22:08:27.772Z,12.40
2018-12-31T22:10:57.171Z,12.40
2018-12-31T22:13:26.561Z,12.40
2018-12-31T22:15:56.252Z,12.40
2018-12-31T22:18:25.963Z,12.40
2018-12-31T22:20:55.353Z,12.40
2018-12-31T22:23:24.729Z,12.40
2018-12-31T22:25:54.521Z,12.40
2018-12-31T22:28:23.909Z,12.40
2018-12-31T22:30:53.306Z,12.40
2018-12-31T22:33:22.691Z,12.40
2018-12-31T22:35:52.092Z,12.50
2018-12-31T22:38:21.461Z,12.50
2018-12-31T22:40:50.864Z,12.50
2018-12-31T22:43:20.240Z,12.60
2018-12-31T22:45:49.629Z,12.60
2018-12-31T22:48:19.457Z,12.60
2018-12-31T22:50:48.837Z,12.60
2018-12-31T22:53:18.217Z,12.70
2018-12-31T22:55:48.695Z,12.60
2018-12-31T22:58:18.174Z,12.70
2018-12-31T23:00:48.769Z,12.70
2018-12-31T23:03:18.173Z,12.70
2018-12-31T23:05:47.590Z,12.70
2018-12-31T23:08:17.331Z,12.70
2018-12-31T23:10:46.769Z,12.70
2018-12-31T23:13:16.152Z,12.80
2018-12-31T23:15:47.427Z,12.80
2018-12-31T23:18:16.906Z,12.80
2018-12-31T23:20:46.385Z,12.80
2018-12-31T23:23:15.766Z,12.80
2018-12-31T23:25:45.190Z,12.80
2018-12-31T23:28:14.572Z,12.90
2018-12-31T23:30:43.979Z,12.90
2018-12-31T23:33:13.566Z,12.90
2018-12-31T23:35:42.976Z,12.90
2018-12-31T23:38:12.358Z,12.90
2018-12-31T23:40:41.801Z,12.90
2018-12-31T23:43:11.167Z,12.90
2018-12-31T23:45:40.868Z,12.90
2018-12-31T23:48:10.257Z,12.90
2018-12-31T23:50:39.657Z,12.90
2018-12-31T23:53:09.036Z,12.90
2018-12-31T23:55:38.954Z,12.90
2018-12-31T23:58:08.558Z,12.90
